sensor_id;sensor_type;location;lat;lon;timestamp;temperature;humidity
1524;DHT22;755;53.658;10.118;2022-11-11T00:04:32;12.00;99.90
1524;DHT22;755;53.658;10.118;2022-11-11T00:14:36;11.90;99.90
1524;DHT22;755;53.658;10.118;2022-11-11T00:24:38;11.90;99.90
1524;DHT22;755;53.658;10.118;2022-11-11T00:34:59;11.90;99.90
1524;DHT22;755;53.658;10.118;2022-11-11T00:45:19;11.90;99.90
1524;DHT22;755;53.658;10.118;2022-11-11T00:55:23;12.00;99.90
1524;DHT22;755;53.658;10.118;2022-11-11T01:05:25;12.00;99.90
1524;DHT22;755;53.658;10.118;2022-11-11T01:15:32;12.00;99.90
1524;DHT22;755;53.658;10.118;2022-11-11T01:25:34;12.10;99.90
1524;DHT22;755;53.658;10.118;2022-11-11T01:35:39;12.10;99.90
1524;DHT22;755;53.658;10.118;2022-11-11T01:45:47;12.20;99.90
1524;DHT22;755;53.658;10.118;2022-11-11T01:55:51;12.20;99.90
1524;DHT22;755;53.658;10.118;2022-11-11T02:05:57;12.20;99.90
1524;DHT22;755;53.658;10.118;2022-11-11T02:16:01;12.20;99.90
1524;DHT22;755;53.658;10.118;2022-11-11T02:26:06;12.10;99.90
1524;DHT22;755;53.658;10.118;2022-11-11T02:36:14;12.20;99.90
1524;DHT22;755;53.658;10.118;2022-11-11T02:46:18;12.20;99.90
1524;DHT22;755;53.658;10.118;2022-11-11T02:56:20;12.10;99.90
1524;DHT22;755;53.658;10.118;2022-11-11T03:06:37;12.00;99.90
1524;DHT22;755;53.658;10.118;2022-11-11T03:16:39;12.00;99.90
1524;DHT22;755;53.658;10.118;2022-11-11T03:27:00;11.90;99.90
1524;DHT22;755;53.658;10.118;2022-11-11T03:37:03;11.80;99.90
1524;DHT22;755;53.658;10.118;2022-11-11T03:47:27;11.70;99.90
1524;DHT22;755;53.658;10.118;2022-11-11T03:57:30;11.70;99.90
1524;DHT22;755;53.658;10.118;2022-11-11T04:07:33;11.70;99.90
1524;DHT22;755;53.658;10.118;2022-11-11T04:17:53;11.60;99.90
1524;DHT22;755;53.658;10.118;2022-11-11T04:27:57;11.50;99.90
1524;DHT22;755;53.658;10.118;2022-11-11T04:38:13;11.40;99.90
1524;DHT22;755;53.658;10.118;2022-11-11T04:48:34;11.40;99.90
1524;DHT22;755;53.658;10.118;2022-11-11T04:58:36;11.30;99.90
1524;DHT22;755;53.658;10.118;2022-11-11T05:08:40;11.30;99.90
1524;DHT22;755;53.658;10.118;2022-11-11T05:18:58;11.30;99.90
1524;DHT22;755;53.658;10.118;2022-11-11T05:29:22;11.20;99.90
1524;DHT22;755;53.658;10.118;2022-11-11T05:39:24;11.10;99.90
1524;DHT22;755;53.658;10.118;2022-11-11T05:49:28;11.10;99.90
1524;DHT22;755;53.658;10.118;2022-11-11T05:59:30;11.00;99.90
1524;DHT22;755;53.658;10.118;2022-11-11T06:09:34;10.90;99.90
1524;DHT22;755;53.658;10.118;2022-11-11T06:19:39;10.90;99.90
1524;DHT22;755;53.658;10.118;2022-11-11T06:29:42;10.90;99.90
1524;DHT22;755;53.658;10.118;2022-11-11T06:39:44;10.90;99.90
1524;DHT22;755;53.658;10.118;2022-11-11T06:49:48;10.90;99.90
1524;DHT22;755;53.658;10.118;2022-11-11T06:59:50;10.90;99.90
1524;DHT22;755;53.658;10.118;2022-11-11T07:09:54;10.90;99.90
1524;DHT22;755;53.658;10.118;2022-11-11T07:19:56;10.80;99.90
1524;DHT22;755;53.658;10.118;2022-11-11T07:30:00;10.80;99.90
1524;DHT22;755;53.658;10.118;2022-11-11T07:40:06;10.80;99.90
1524;DHT22;755;53.658;10.118;2022-11-11T07:50:20;10.80;99.90
1524;DHT22;755;53.658;10.118;2022-11-11T08:00:25;10.80;99.90
1524;DHT22;755;53.658;10.118;2022-11-11T08:10:32;10.90;99.90
1524;DHT22;755;53.658;10.118;2022-11-11T08:20:35;10.80;99.90
1524;DHT22;755;53.658;10.118;2022-11-11T08:30:38;10.90;99.90
1524;DHT22;755;53.658;10.118;2022-11-11T08:40:40;10.90;99.90
1524;DHT22;755;53.658;10.118;2022-11-11T08:50:44;10.90;99.90
1524;DHT22;755;53.658;10.118;2022-11-11T09:00:46;11.00;99.90
1524;DHT22;755;53.658;10.118;2022-11-11T09:10:49;11.00;99.90
1524;DHT22;755;53.658;10.118;2022-11-11T09:20:51;11.10;99.90
1524;DHT22;755;53.658;10.118;2022-11-11T09:30:55;11.20;99.90
1524;DHT22;755;53.658;10.118;2022-11-11T09:41:06;11.20;99.90
1524;DHT22;755;53.658;10.118;2022-11-11T09:51:17;11.30;99.90
1524;DHT22;755;53.658;10.118;2022-11-11T10:01:24;11.30;99.90
1524;DHT22;755;53.658;10.118;2022-11-11T10:11:38;11.20;99.90
1524;DHT22;755;53.658;10.118;2022-11-11T10:21:45;11.30;99.90
1524;DHT22;755;53.658;10.118;2022-11-11T10:31:55;11.30;99.90
1524;DHT22;755;53.658;10.118;2022-11-11T10:42:00;11.30;99.90
1524;DHT22;755;53.658;10.118;2022-11-11T10:52:11;11.30;99.90
1524;DHT22;755;53.658;10.118;2022-11-11T11:02:19;11.50;99.90
1524;DHT22;755;53.658;10.118;2022-11-11T11:12:29;11.60;99.90
1524;DHT22;755;53.658;10.118;2022-11-11T11:22:45;11.50;99.90
1524;DHT22;755;53.658;10.118;2022-11-11T11:32:57;11.60;99.90
1524;DHT22;755;53.658;10.118;2022-11-11T11:43:00;11.70;99.90
1524;DHT22;755;53.658;10.118;2022-11-11T11:53:18;11.80;99.90
1524;DHT22;755;53.658;10.118;2022-11-11T12:03:50;11.80;99.90
1524;DHT22;755;53.658;10.118;2022-11-11T12:14:21;11.80;99.90
1524;DHT22;755;53.658;10.118;2022-11-11T12:24:57;11.90;99.90
1524;DHT22;755;53.658;10.118;2022-11-11T12:45:43;11.80;99.90
1524;DHT22;755;53.658;10.118;2022-11-11T12:55:57;11.70;99.90
1524;DHT22;755;53.658;10.118;2022-11-11T13:06:10;11.50;99.90
1524;DHT22;755;53.658;10.118;2022-11-11T13:16:16;11.60;99.90
1524;DHT22;755;53.658;10.118;2022-11-11T13:26:26;11.60;99.90
1524;DHT22;755;53.658;10.118;2022-11-11T13:36:38;11.60;99.90
1524;DHT22;755;53.658;10.118;2022-11-11T13:46:43;11.60;99.90
1524;DHT22;755;53.658;10.118;2022-11-11T13:56:49;11.50;99.90
1524;DHT22;755;53.658;10.118;2022-11-11T14:06:53;11.60;99.90
1524;DHT22;755;53.658;10.118;2022-11-11T14:17:03;11.60;99.90
1524;DHT22;755;53.658;10.118;2022-11-11T14:27:15;11.60;99.90
1524;DHT22;755;53.658;10.118;2022-11-11T14:37:38;11.60;99.90
1524;DHT22;755;53.658;10.118;2022-11-11T14:47:44;11.60;99.90
1524;DHT22;755;53.658;10.118;2022-11-11T14:57:56;11.70;99.90
1524;DHT22;755;53.658;10.118;2022-11-11T15:08:09;11.60;99.90
1524;DHT22;755;53.658;10.118;2022-11-11T15:18:29;11.50;99.90
1524;DHT22;755;53.658;10.118;2022-11-11T15:28:48;11.50;99.90
1524;DHT22;755;53.658;10.118;2022-11-11T15:38:57;11.50;99.90
1524;DHT22;755;53.658;10.118;2022-11-11T15:49:00;11.50;99.90
1524;DHT22;755;53.658;10.118;2022-11-11T15:59:22;11.50;99.90
1524;DHT22;755;53.658;10.118;2022-11-11T16:09:29;11.50;99.90
1524;DHT22;755;53.658;10.118;2022-11-11T16:19:36;11.50;99.90
1524;DHT22;755;53.658;10.118;2022-11-11T16:29:43;11.50;99.90
1524;DHT22;755;53.658;10.118;2022-11-11T16:39:47;11.50;99.90
1524;DHT22;755;53.658;10.118;2022-11-11T16:50:01;11.50;99.90
1524;DHT22;755;53.658;10.118;2022-11-11T17:00:11;11.50;99.90
1524;DHT22;755;53.658;10.118;2022-11-11T17:10:18;11.50;99.90
1524;DHT22;755;53.658;10.118;2022-11-11T17:20:29;11.40;99.90
1524;DHT22;755;53.658;10.118;2022-11-11T17:30:53;11.50;99.90
1524;DHT22;755;53.658;10.118;2022-11-11T17:41:00;11.80;99.90
1524;DHT22;755;53.658;10.118;2022-11-11T17:51:05;11.80;99.90
1524;DHT22;755;53.658;10.118;2022-11-11T18:01:11;11.90;99.90
1524;DHT22;755;53.658;10.118;2022-11-11T18:11:14;11.90;99.90
1524;DHT22;755;53.658;10.118;2022-11-11T18:21:21;11.90;99.90
1524;DHT22;755;53.658;10.118;2022-11-11T18:31:24;11.80;99.90
1524;DHT22;755;53.658;10.118;2022-11-11T18:41:31;11.60;99.90
1524;DHT22;755;53.658;10.118;2022-11-11T18:51:35;11.50;99.90
1524;DHT22;755;53.658;10.118;2022-11-11T19:01:40;11.40;99.90
1524;DHT22;755;53.658;10.118;2022-11-11T19:11:44;11.40;99.90
1524;DHT22;755;53.658;10.118;2022-11-11T19:21:51;11.40;99.90
1524;DHT22;755;53.658;10.118;2022-11-11T19:31:54;11.50;99.90
1524;DHT22;755;53.658;10.118;2022-11-11T19:41:58;11.70;99.90
1524;DHT22;755;53.658;10.118;2022-11-11T19:52:01;11.60;99.90
1524;DHT22;755;53.658;10.118;2022-11-11T20:02:08;11.50;99.90
1524;DHT22;755;53.658;10.118;2022-11-11T20:12:14;11.40;99.90
1524;DHT22;755;53.658;10.118;2022-11-11T20:22:19;11.40;99.90
1524;DHT22;755;53.658;10.118;2022-11-11T20:32:22;11.30;99.90
1524;DHT22;755;53.658;10.118;2022-11-11T20:42:27;11.40;99.90
1524;DHT22;755;53.658;10.118;2022-11-11T20:52:33;11.50;99.90
1524;DHT22;755;53.658;10.118;2022-11-11T21:02:38;11.50;99.90
1524;DHT22;755;53.658;10.118;2022-11-11T21:12:57;11.40;99.90
1524;DHT22;755;53.658;10.118;2022-11-11T21:23:21;11.50;99.90
1524;DHT22;755;53.658;10.118;2022-11-11T21:33:30;11.50;99.90
1524;DHT22;755;53.658;10.118;2022-11-11T21:43:45;11.50;99.90
1524;DHT22;755;53.658;10.118;2022-11-11T21:53:50;11.50;99.90
1524;DHT22;755;53.658;10.118;2022-11-11T22:04:03;11.50;99.90
1524;DHT22;755;53.658;10.118;2022-11-11T22:14:12;11.50;99.90
1524;DHT22;755;53.658;10.118;2022-11-11T22:24:22;11.50;99.90
1524;DHT22;755;53.658;10.118;2022-11-11T22:34:25;11.50;99.90
1524;DHT22;755;53.658;10.118;2022-11-11T22:44:30;11.50;99.90
1524;DHT22;755;53.658;10.118;2022-11-11T22:54:32;11.40;99.90
1524;DHT22;755;53.658;10.118;2022-11-11T23:04:36;11.30;99.90
1524;DHT22;755;53.658;10.118;2022-11-11T23:14:38;11.10;99.90
1524;DHT22;755;53.658;10.118;2022-11-11T23:24:42;11.00;99.90
1524;DHT22;755;53.658;10.118;2022-11-11T23:34:44;11.00;99.90
1524;DHT22;755;53.658;10.118;2022-11-11T23:44:49;11.00;99.90
1524;DHT22;755;53.658;10.118;2022-11-11T23:54:51;10.90;99.90
